sensor_id;sensor_type;location;lat;lon;timestamp;pressure;altitude;pressure_sealevel;temperature;humidity
4767;BME280;2397;53.576;9.746;2023-04-21T00:00:54;102096.81;;;7.76;79.28
4767;BME280;2397;53.576;9.746;2023-04-21T00:03:21;102098.72;;;7.74;79.06
4767;BME280;2397;53.576;9.746;2023-04-21T00:05:50;102097.00;;;7.73;78.91
4767;BME280;2397;53.576;9.746;2023-04-21T00:08:17;102096.19;;;7.72;79.11
4767;BME280;2397;53.576;9.746;2023-04-21T00:10:44;102103.78;;;7.77;79.24
4767;BME280;2397;53.576;9.746;2023-04-21T00:13:12;102096.72;;;7.77;79.09
4767;BME280;2397;53.576;9.746;2023-04-21T00:15:39;102101.88;;;7.79;79.11
4767;BME280;2397;53.576;9.746;2023-04-21T00:18:06;102106.28;;;7.78;79.12
4767;BME280;2397;53.576;9.746;2023-04-21T00:20:32;102103.13;;;7.73;79.13
4767;BME280;2397;53.576;9.746;2023-04-21T00:22:59;102103.13;;;7.73;79.31
4767;BME280;2397;53.576;9.746;2023-04-21T00:25:26;102093.47;;;7.74;79.50
4767;BME280;2397;53.576;9.746;2023-04-21T00:27:52;102094.72;;;7.68;79.55
4767;BME280;2397;53.576;9.746;2023-04-21T00:30:19;102094.03;;;7.65;79.29
4767;BME280;2397;53.576;9.746;2023-04-21T00:32:45;102094.25;;;7.62;79.35
4767;BME280;2397;53.576;9.746;2023-04-21T00:35:12;102087.31;;;7.61;79.64
4767;BME280;2397;53.576;9.746;2023-04-21T00:37:39;102088.53;;;7.55;80.08
4767;BME280;2397;53.576;9.746;2023-04-21T00:40:08;102087.31;;;7.61;79.97
4767;BME280;2397;53.576;9.746;2023-04-21T00:42:38;102092.56;;;7.61;79.36
4767;BME280;2397;53.576;9.746;2023-04-21T00:45:05;102081.63;;;7.54;79.76
4767;BME280;2397;53.576;9.746;2023-04-21T00:47:31;102077.94;;;7.57;79.86
4767;BME280;2397;53.576;9.746;2023-04-21T00:49:58;102082.47;;;7.55;79.69
4767;BME280;2397;53.576;9.746;2023-04-21T00:52:26;102078.22;;;7.52;79.85
4767;BME280;2397;53.576;9.746;2023-04-21T00:54:53;102072.88;;;7.54;80.04
4767;BME280;2397;53.576;9.746;2023-04-21T00:57:20;102075.06;;;7.47;79.93
4767;BME280;2397;53.576;9.746;2023-04-21T00:59:47;102071.50;;;7.48;79.87
4767;BME280;2397;53.576;9.746;2023-04-21T01:02:17;102067.94;;;7.49;80.19
4767;BME280;2397;53.576;9.746;2023-04-21T01:04:46;102067.53;;;7.55;79.71
4767;BME280;2397;53.576;9.746;2023-04-21T01:07:12;102070.06;;;7.57;79.43
4767;BME280;2397;53.576;9.746;2023-04-21T01:09:39;102060.41;;;7.57;79.65
4767;BME280;2397;53.576;9.746;2023-04-21T01:12:08;102067.53;;;7.55;79.55
4767;BME280;2397;53.576;9.746;2023-04-21T01:18:41;102069.19;;;7.44;79.56
4767;BME280;2397;53.576;9.746;2023-04-21T01:21:07;102066.66;;;7.42;80.30
4767;BME280;2397;53.576;9.746;2023-04-21T01:23:34;102064.75;;;7.44;80.35
4767;BME280;2397;53.576;9.746;2023-04-21T01:26:01;102067.47;;;7.43;80.37
4767;BME280;2397;53.576;9.746;2023-04-21T01:28:27;102066.66;;;7.42;80.19
4767;BME280;2397;53.576;9.746;2023-04-21T01:30:54;102065.50;;;7.46;80.23
4767;BME280;2397;53.576;9.746;2023-04-21T01:33:20;102061.31;;;7.44;80.43
4767;BME280;2397;53.576;9.746;2023-04-21T01:35:47;102057.81;;;7.43;80.20
4767;BME280;2397;53.576;9.746;2023-04-21T01:38:18;102052.97;;;7.37;80.44
4767;BME280;2397;53.576;9.746;2023-04-21T01:40:48;102054.75;;;7.37;80.32
4767;BME280;2397;53.576;9.746;2023-04-21T01:43:17;102059.69;;;7.41;80.02
4767;BME280;2397;53.576;9.746;2023-04-21T01:45:44;102061.59;;;7.39;80.03
4767;BME280;2397;53.576;9.746;2023-04-21T01:48:10;102053.91;;;7.36;80.52
4767;BME280;2397;53.576;9.746;2023-04-21T01:50:38;102054.44;;;7.41;80.27
4767;BME280;2397;53.576;9.746;2023-04-21T01:53:05;102053.63;;;7.41;80.11
4767;BME280;2397;53.576;9.746;2023-04-21T01:55:34;102052.97;;;7.37;80.21
4767;BME280;2397;53.576;9.746;2023-04-21T01:58:00;102050.44;;;7.36;80.43
4767;BME280;2397;53.576;9.746;2023-04-21T02:00:28;102046.22;;;7.33;80.52
4767;BME280;2397;53.576;9.746;2023-04-21T02:02:55;102053.16;;;7.34;80.32
4767;BME280;2397;53.576;9.746;2023-04-21T02:05:22;102048.75;;;7.35;80.22
4767;BME280;2397;53.576;9.746;2023-04-21T02:07:49;102046.41;;;7.30;80.58
4767;BME280;2397;53.576;9.746;2023-04-21T02:10:15;102039.81;;;7.37;80.50
4767;BME280;2397;53.576;9.746;2023-04-21T02:12:43;102042.44;;;7.37;80.18
4767;BME280;2397;53.576;9.746;2023-04-21T02:15:10;102044.25;;;7.37;80.38
4767;BME280;2397;53.576;9.746;2023-04-21T02:17:36;102048.94;;;7.32;80.34
4767;BME280;2397;53.576;9.746;2023-04-21T02:20:05;102047.25;;;7.31;80.31
4767;BME280;2397;53.576;9.746;2023-04-21T02:22:31;102038.44;;;7.32;80.10
4767;BME280;2397;53.576;9.746;2023-04-21T02:25:01;102041.06;;;7.32;80.30
4767;BME280;2397;53.576;9.746;2023-04-21T02:27:28;102040.53;;;7.27;80.48
4767;BME280;2397;53.576;9.746;2023-04-21T02:29:58;102036.69;;;7.18;80.65
4767;BME280;2397;53.576;9.746;2023-04-21T02:32:24;102035.41;;;7.11;80.66
4767;BME280;2397;53.576;9.746;2023-04-21T02:34:51;102029.00;;;7.15;80.90
4767;BME280;2397;53.576;9.746;2023-04-21T02:37:19;102029.50;;;7.22;80.79
4767;BME280;2397;53.576;9.746;2023-04-21T02:39:45;102031.78;;;7.26;80.73
4767;BME280;2397;53.576;9.746;2023-04-21T02:42:12;102030.97;;;7.26;80.27
4767;BME280;2397;53.576;9.746;2023-04-21T02:44:38;102029.41;;;7.23;80.34
4767;BME280;2397;53.576;9.746;2023-04-21T02:47:05;102034.53;;;7.25;80.35
4767;BME280;2397;53.576;9.746;2023-04-21T02:49:32;102033.59;;;7.26;80.46
4767;BME280;2397;53.576;9.746;2023-04-21T02:51:58;102036.31;;;7.24;80.16
4767;BME280;2397;53.576;9.746;2023-04-21T02:54:25;102031.44;;;7.18;80.39
4767;BME280;2397;53.576;9.746;2023-04-21T02:56:51;102029.50;;;7.22;80.33
4767;BME280;2397;53.576;9.746;2023-04-21T02:59:18;102035.38;;;7.25;80.45
4767;BME280;2397;53.576;9.746;2023-04-21T03:01:45;102032.75;;;7.25;80.07
4767;BME280;2397;53.576;9.746;2023-04-21T03:04:14;102032.94;;;7.22;79.90
4767;BME280;2397;53.576;9.746;2023-04-21T03:06:41;102037.56;;;7.19;80.27
4767;BME280;2397;53.576;9.746;2023-04-21T03:09:07;102034.84;;;7.20;80.17
4767;BME280;2397;53.576;9.746;2023-04-21T03:11:34;102030.31;;;7.22;81.04
4767;BME280;2397;53.576;9.746;2023-04-21T03:14:01;102034.84;;;7.20;80.39
4767;BME280;2397;53.576;9.746;2023-04-21T03:16:27;102032.84;;;7.24;80.48
4767;BME280;2397;53.576;9.746;2023-04-21T03:18:54;102032.94;;;7.22;80.23
4767;BME280;2397;53.576;9.746;2023-04-21T03:21:21;102029.41;;;7.23;80.15
4767;BME280;2397;53.576;9.746;2023-04-21T03:23:48;102034.84;;;7.20;80.43
4767;BME280;2397;53.576;9.746;2023-04-21T03:26:14;102031.44;;;7.18;80.38
4767;BME280;2397;53.576;9.746;2023-04-21T03:28:41;102025.16;;;7.21;80.18
4767;BME280;2397;53.576;9.746;2023-04-21T03:31:08;102021.91;;;7.17;79.96
4767;BME280;2397;53.576;9.746;2023-04-21T03:33:34;102028.91;;;7.17;80.33
4767;BME280;2397;53.576;9.746;2023-04-21T03:36:01;102013.47;;;7.12;80.06
4767;BME280;2397;53.576;9.746;2023-04-21T03:38:28;102026.81;;;7.09;80.58
4767;BME280;2397;53.576;9.746;2023-04-21T03:40:55;102025.94;;;7.08;80.35
4767;BME280;2397;53.576;9.746;2023-04-21T03:43:22;102016.31;;;7.09;80.68
4767;BME280;2397;53.576;9.746;2023-04-21T03:45:50;102020.59;;;7.10;79.81
4767;BME280;2397;53.576;9.746;2023-04-21T03:48:17;102021.38;;;7.12;80.49
4767;BME280;2397;53.576;9.746;2023-04-21T03:50:44;102023.03;;;7.13;80.40
4767;BME280;2397;53.576;9.746;2023-04-21T03:53:10;102026.47;;;7.13;80.42
4767;BME280;2397;53.576;9.746;2023-04-21T03:55:37;102030.16;;;7.11;80.51
4767;BME280;2397;53.576;9.746;2023-04-21T03:58:03;102019.03;;;7.07;80.20
4767;BME280;2397;53.576;9.746;2023-04-21T04:00:30;102022.59;;;7.07;80.22
4767;BME280;2397;53.576;9.746;2023-04-21T04:02:56;102018.06;;;7.08;79.65
4767;BME280;2397;53.576;9.746;2023-04-21T04:05:23;102013.78;;;7.07;79.94
4767;BME280;2397;53.576;9.746;2023-04-21T04:07:50;102018.94;;;7.09;79.99
4767;BME280;2397;53.576;9.746;2023-04-21T04:10:17;102017.88;;;7.12;79.63
4767;BME280;2397;53.576;9.746;2023-04-21T04:12:43;102024.28;;;7.07;79.49
4767;BME280;2397;53.576;9.746;2023-04-21T04:15:10;102021.66;;;7.07;79.31
4767;BME280;2397;53.576;9.746;2023-04-21T04:17:37;102013.88;;;7.06;80.18
4767;BME280;2397;53.576;9.746;2023-04-21T04:20:06;102012.91;;;7.07;79.61
4767;BME280;2397;53.576;9.746;2023-04-21T04:22:33;102011.06;;;7.09;79.71
4767;BME280;2397;53.576;9.746;2023-04-21T04:25:00;102019.31;;;7.03;79.88
4767;BME280;2397;53.576;9.746;2023-04-21T04:27:26;102013.00;;;7.05;79.38
4767;BME280;2397;53.576;9.746;2023-04-21T04:29:53;102021.38;;;7.12;79.16
4767;BME280;2397;53.576;9.746;2023-04-21T04:32:19;102017.69;;;7.15;79.24
4767;BME280;2397;53.576;9.746;2023-04-21T04:34:47;102017.59;;;7.16;79.58
4767;BME280;2397;53.576;9.746;2023-04-21T04:37:13;102022.94;;;7.15;79.11
4767;BME280;2397;53.576;9.746;2023-04-21T04:39:40;102015.06;;;7.15;78.79
4767;BME280;2397;53.576;9.746;2023-04-21T04:42:06;102024.34;;;7.20;78.81
4767;BME280;2397;53.576;9.746;2023-04-21T04:44:36;102019.09;;;7.20;79.30
4767;BME280;2397;53.576;9.746;2023-04-21T04:47:03;102018.31;;;7.18;79.14
4767;BME280;2397;53.576;9.746;2023-04-21T04:49:30;102018.88;;;7.23;79.11
4767;BME280;2397;53.576;9.746;2023-04-21T04:51:57;102021.19;;;7.28;79.53
4767;BME280;2397;53.576;9.746;2023-04-21T04:54:24;102017.75;;;7.27;79.22
4767;BME280;2397;53.576;9.746;2023-04-21T04:56:50;102018.47;;;7.29;79.30
4767;BME280;2397;53.576;9.746;2023-04-21T04:59:17;102013.22;;;7.29;79.12
4767;BME280;2397;53.576;9.746;2023-04-21T05:01:44;102012.28;;;7.30;79.01
4767;BME280;2397;53.576;9.746;2023-04-21T05:04:11;102016.38;;;7.34;79.54
4767;BME280;2397;53.576;9.746;2023-04-21T05:06:41;102023.16;;;7.38;78.80
4767;BME280;2397;53.576;9.746;2023-04-21T05:09:08;102022.19;;;7.39;78.92
4767;BME280;2397;53.576;9.746;2023-04-21T05:11:35;102019.28;;;7.44;78.98
4767;BME280;2397;53.576;9.746;2023-04-21T05:14:02;102021.06;;;7.43;78.83
4767;BME280;2397;53.576;9.746;2023-04-21T05:16:28;102017.66;;;7.41;79.27
4767;BME280;2397;53.576;9.746;2023-04-21T05:18:55;102016.94;;;7.39;79.37
4767;BME280;2397;53.576;9.746;2023-04-21T05:21:25;102020.88;;;7.46;78.90
4767;BME280;2397;53.576;9.746;2023-04-21T05:23:55;102022.44;;;7.49;78.89
4767;BME280;2397;53.576;9.746;2023-04-21T05:26:22;102026.75;;;7.50;78.95
4767;BME280;2397;53.576;9.746;2023-04-21T05:28:49;102023.81;;;7.54;78.47
4767;BME280;2397;53.576;9.746;2023-04-21T05:31:16;102028.47;;;7.63;79.23
4767;BME280;2397;53.576;9.746;2023-04-21T05:33:43;102028.16;;;7.68;78.22
4767;BME280;2397;53.576;9.746;2023-04-21T05:36:09;102027.66;;;7.75;78.17
4767;BME280;2397;53.576;9.746;2023-04-21T05:38:37;102032.50;;;7.81;78.12
4767;BME280;2397;53.576;9.746;2023-04-21T05:41:03;102020.13;;;7.83;77.68
4767;BME280;2397;53.576;9.746;2023-04-21T05:43:30;102024.03;;;7.90;77.12
4767;BME280;2397;53.576;9.746;2023-04-21T05:46:00;102019.19;;;7.97;77.74
4767;BME280;2397;53.576;9.746;2023-04-21T05:48:27;102020.34;;;8.05;77.29
4767;BME280;2397;53.576;9.746;2023-04-21T05:50:56;102019.91;;;8.11;77.08
4767;BME280;2397;53.576;9.746;2023-04-21T05:53:22;102015.75;;;8.21;76.92
4767;BME280;2397;53.576;9.746;2023-04-21T05:55:49;102022.69;;;8.35;76.38
4767;BME280;2397;53.576;9.746;2023-04-21T05:58:16;102015.00;;;8.44;76.38
4767;BME280;2397;53.576;9.746;2023-04-21T06:00:42;102022.28;;;8.53;76.36
4767;BME280;2397;53.576;9.746;2023-04-21T06:03:08;102017.44;;;8.60;75.80
4767;BME280;2397;53.576;9.746;2023-04-21T06:05:35;102013.91;;;8.72;75.68
4767;BME280;2397;53.576;9.746;2023-04-21T06:08:02;102011.72;;;8.78;75.33
4767;BME280;2397;53.576;9.746;2023-04-21T06:10:29;102007.47;;;8.88;75.40
4767;BME280;2397;53.576;9.746;2023-04-21T06:12:56;102009.25;;;9.00;74.57
4767;BME280;2397;53.576;9.746;2023-04-21T06:15:22;102003.28;;;9.09;74.40
4767;BME280;2397;53.576;9.746;2023-04-21T06:17:53;102005.13;;;9.20;74.81
4767;BME280;2397;53.576;9.746;2023-04-21T06:20:22;102009.00;;;9.27;73.99
4767;BME280;2397;53.576;9.746;2023-04-21T06:22:49;102017.81;;;9.38;73.63
4767;BME280;2397;53.576;9.746;2023-04-21T06:25:15;102004.47;;;9.52;72.54
4767;BME280;2397;53.576;9.746;2023-04-21T06:27:42;102016.25;;;9.59;72.53
4767;BME280;2397;53.576;9.746;2023-04-21T06:30:11;102005.22;;;9.65;72.24
4767;BME280;2397;53.576;9.746;2023-04-21T06:32:37;102012.09;;;9.79;72.68
4767;BME280;2397;53.576;9.746;2023-04-21T06:35:04;102011.44;;;9.88;72.37
4767;BME280;2397;53.576;9.746;2023-04-21T06:37:31;102006.78;;;10.02;71.86
4767;BME280;2397;53.576;9.746;2023-04-21T06:39:57;102003.63;;;10.21;70.47
4767;BME280;2397;53.576;9.746;2023-04-21T06:42:24;102003.00;;;10.28;70.53
4767;BME280;2397;53.576;9.746;2023-04-21T06:44:53;101997.97;;;10.36;69.64
4767;BME280;2397;53.576;9.746;2023-04-21T06:47:21;101991.88;;;10.47;69.58
4767;BME280;2397;53.576;9.746;2023-04-21T06:49:48;101988.75;;;10.53;69.42
4767;BME280;2397;53.576;9.746;2023-04-21T06:52:14;101988.88;;;10.63;69.53
4767;BME280;2397;53.576;9.746;2023-04-21T06:54:43;101995.47;;;10.79;68.32
4767;BME280;2397;53.576;9.746;2023-04-21T06:57:09;101987.16;;;10.84;68.78
4767;BME280;2397;53.576;9.746;2023-04-21T06:59:36;101985.94;;;10.99;68.03
4767;BME280;2397;53.576;9.746;2023-04-21T07:02:03;101982.56;;;11.08;68.06
4767;BME280;2397;53.576;9.746;2023-04-21T07:04:29;101982.66;;;11.17;66.44
4767;BME280;2397;53.576;9.746;2023-04-21T07:06:57;101981.53;;;11.31;66.21
4767;BME280;2397;53.576;9.746;2023-04-21T07:09:27;101984.75;;;11.34;66.12
4767;BME280;2397;53.576;9.746;2023-04-21T07:11:54;101983.09;;;11.54;65.34
4767;BME280;2397;53.576;9.746;2023-04-21T07:14:21;101975.28;;;11.63;65.41
4767;BME280;2397;53.576;9.746;2023-04-21T07:16:47;101975.69;;;11.79;63.31
4767;BME280;2397;53.576;9.746;2023-04-21T07:19:14;101975.34;;;11.93;62.41
4767;BME280;2397;53.576;9.746;2023-04-21T07:21:40;101971.81;;;12.04;63.42
4767;BME280;2397;53.576;9.746;2023-04-21T07:24:07;101969.53;;;12.20;63.26
4767;BME280;2397;53.576;9.746;2023-04-21T07:26:34;101962.91;;;12.35;61.28
4767;BME280;2397;53.576;9.746;2023-04-21T07:29:00;101965.88;;;12.41;61.01
4767;BME280;2397;53.576;9.746;2023-04-21T07:31:27;101955.59;;;12.48;59.76
4767;BME280;2397;53.576;9.746;2023-04-21T07:33:53;101964.84;;;12.63;61.50
4767;BME280;2397;53.576;9.746;2023-04-21T07:36:20;101963.75;;;12.75;61.10
4767;BME280;2397;53.576;9.746;2023-04-21T07:38:46;101967.69;;;12.90;60.79
4767;BME280;2397;53.576;9.746;2023-04-21T07:41:13;101964.69;;;13.04;58.78
4767;BME280;2397;53.576;9.746;2023-04-21T07:43:39;101966.38;;;13.14;58.38
4767;BME280;2397;53.576;9.746;2023-04-21T07:46:06;101966.94;;;13.37;59.16
4767;BME280;2397;53.576;9.746;2023-04-21T07:48:33;101967.81;;;13.47;58.28
4767;BME280;2397;53.576;9.746;2023-04-21T07:50:59;101958.00;;;13.47;56.64
4767;BME280;2397;53.576;9.746;2023-04-21T07:53:27;101962.47;;;13.66;58.67
4767;BME280;2397;53.576;9.746;2023-04-21T07:55:53;101956.28;;;13.85;57.42
4767;BME280;2397;53.576;9.746;2023-04-21T07:58:20;101956.00;;;13.97;57.43
4767;BME280;2397;53.576;9.746;2023-04-21T08:00:48;101957.78;;;14.16;57.39
4767;BME280;2397;53.576;9.746;2023-04-21T08:03:15;101943.22;;;14.29;55.31
4767;BME280;2397;53.576;9.746;2023-04-21T08:05:41;101948.78;;;14.36;54.42
4767;BME280;2397;53.576;9.746;2023-04-21T08:08:08;101952.91;;;14.48;55.91
4767;BME280;2397;53.576;9.746;2023-04-21T08:10:35;101945.50;;;14.51;54.64
4767;BME280;2397;53.576;9.746;2023-04-21T08:13:01;101935.53;;;14.53;53.42
4767;BME280;2397;53.576;9.746;2023-04-21T08:15:32;101939.38;;;14.68;53.48
4767;BME280;2397;53.576;9.746;2023-04-21T08:17:59;101946.19;;;14.80;53.93
4767;BME280;2397;53.576;9.746;2023-04-21T08:20:26;101945.06;;;15.00;53.50
4767;BME280;2397;53.576;9.746;2023-04-21T08:22:52;101935.13;;;15.02;52.63
4767;BME280;2397;53.576;9.746;2023-04-21T08:25:19;101941.50;;;15.09;53.82
4767;BME280;2397;53.576;9.746;2023-04-21T08:27:46;101937.72;;;15.29;54.41
4767;BME280;2397;53.576;9.746;2023-04-21T08:30:12;101927.44;;;15.34;51.72
4767;BME280;2397;53.576;9.746;2023-04-21T08:32:39;101929.81;;;15.37;52.58
4767;BME280;2397;53.576;9.746;2023-04-21T08:35:06;101924.50;;;15.37;50.98
4767;BME280;2397;53.576;9.746;2023-04-21T08:37:35;101929.22;;;15.43;52.45
4767;BME280;2397;53.576;9.746;2023-04-21T08:40:03;101922.00;;;15.53;51.12
4767;BME280;2397;53.576;9.746;2023-04-21T08:42:31;101924.16;;;15.75;51.18
4767;BME280;2397;53.576;9.746;2023-04-21T08:44:58;101927.38;;;15.87;52.69
4767;BME280;2397;53.576;9.746;2023-04-21T08:47:26;101912.03;;;16.06;51.07
4767;BME280;2397;53.576;9.746;2023-04-21T08:49:52;101915.66;;;15.97;50.41
4767;BME280;2397;53.576;9.746;2023-04-21T08:52:19;101902.22;;;16.07;48.66
4767;BME280;2397;53.576;9.746;2023-04-21T08:54:47;101904.78;;;16.16;49.82
4767;BME280;2397;53.576;9.746;2023-04-21T08:57:18;101902.94;;;16.17;49.90
4767;BME280;2397;53.576;9.746;2023-04-21T08:59:44;101901.03;;;16.35;49.33
4767;BME280;2397;53.576;9.746;2023-04-21T09:02:15;101892.63;;;16.55;48.41
4767;BME280;2397;53.576;9.746;2023-04-21T09:04:45;101885.16;;;16.51;46.66
4767;BME280;2397;53.576;9.746;2023-04-21T09:09:56;101901.66;;;16.70;49.63
4767;BME280;2397;53.576;9.746;2023-04-21T09:12:23;101899.22;;;16.77;47.45
4767;BME280;2397;53.576;9.746;2023-04-21T09:14:49;101893.19;;;16.75;47.38
4767;BME280;2397;53.576;9.746;2023-04-21T09:17:17;101898.53;;;16.75;48.98
4767;BME280;2397;53.576;9.746;2023-04-21T09:19:44;101889.22;;;16.87;48.33
4767;BME280;2397;53.576;9.746;2023-04-21T09:22:16;101887.09;;;17.07;45.42
4767;BME280;2397;53.576;9.746;2023-04-21T09:24:48;101891.41;;;17.00;46.92
4767;BME280;2397;53.576;9.746;2023-04-21T09:27:22;101895.09;;;16.99;46.56
4767;BME280;2397;53.576;9.746;2023-04-21T09:29:48;101880.75;;;17.00;46.62
4767;BME280;2397;53.576;9.746;2023-04-21T09:32:16;101893.09;;;17.09;47.81
4767;BME280;2397;53.576;9.746;2023-04-21T09:34:43;101882.75;;;17.06;47.04
4767;BME280;2397;53.576;9.746;2023-04-21T09:37:12;101879.94;;;17.15;46.45
4767;BME280;2397;53.576;9.746;2023-04-21T09:39:45;101879.44;;;17.28;45.30
4767;BME280;2397;53.576;9.746;2023-04-21T09:42:30;101871.75;;;17.25;45.32
4767;BME280;2397;53.576;9.746;2023-04-21T09:44:57;101880.44;;;17.35;49.38
4767;BME280;2397;53.576;9.746;2023-04-21T09:47:50;101879.97;;;17.55;47.92
4767;BME280;2397;53.576;9.746;2023-04-21T09:50:21;101865.75;;;17.55;47.46
4767;BME280;2397;53.576;9.746;2023-04-21T09:53:13;101866.28;;;17.58;45.45
4767;BME280;2397;53.576;9.746;2023-04-21T09:55:41;101854.41;;;17.61;46.59
4767;BME280;2397;53.576;9.746;2023-04-21T09:58:10;101854.72;;;17.66;45.41
4767;BME280;2397;53.576;9.746;2023-04-21T10:00:38;101850.06;;;17.76;45.87
4767;BME280;2397;53.576;9.746;2023-04-21T10:03:07;101856.91;;;17.70;45.93
4767;BME280;2397;53.576;9.746;2023-04-21T10:05:37;101856.75;;;17.72;45.23
4767;BME280;2397;53.576;9.746;2023-04-21T10:08:07;101845.16;;;17.87;44.94
4767;BME280;2397;53.576;9.746;2023-04-21T10:10:36;101843.59;;;18.09;46.47
4767;BME280;2397;53.576;9.746;2023-04-21T10:13:04;101844.03;;;18.28;45.29
4767;BME280;2397;53.576;9.746;2023-04-21T10:15:37;101828.97;;;18.35;42.91
4767;BME280;2397;53.576;9.746;2023-04-21T10:23:38;101833.19;;;18.83;45.01
4767;BME280;2397;53.576;9.746;2023-04-21T10:28:55;101814.50;;;19.20;43.16
4767;BME280;2397;53.576;9.746;2023-04-21T10:31:27;101804.41;;;19.30;42.76
4767;BME280;2397;53.576;9.746;2023-04-21T10:36:35;101789.47;;;19.50;40.73
4767;BME280;2397;53.576;9.746;2023-04-21T10:39:07;101796.13;;;19.54;41.27
4767;BME280;2397;53.576;9.746;2023-04-21T10:41:34;101791.34;;;19.64;40.99
4767;BME280;2397;53.576;9.746;2023-04-21T10:44:21;101792.78;;;19.81;40.57
4767;BME280;2397;53.576;9.746;2023-04-21T10:46:50;101787.34;;;19.74;39.25
4767;BME280;2397;53.576;9.746;2023-04-21T10:49:21;101778.22;;;19.69;38.75
4767;BME280;2397;53.576;9.746;2023-04-21T10:54:29;101770.75;;;19.79;39.24
4767;BME280;2397;53.576;9.746;2023-04-21T10:57:05;101773.88;;;19.97;41.13
4767;BME280;2397;53.576;9.746;2023-04-21T10:59:34;101763.31;;;20.25;41.88
4767;BME280;2397;53.576;9.746;2023-04-21T11:02:02;101758.22;;;20.51;40.27
4767;BME280;2397;53.576;9.746;2023-04-21T11:04:30;101758.03;;;20.73;38.72
4767;BME280;2397;53.576;9.746;2023-04-21T11:07:12;101754.06;;;20.90;37.56
4767;BME280;2397;53.576;9.746;2023-04-21T11:09:40;101745.38;;;20.88;35.08
4767;BME280;2397;53.576;9.746;2023-04-21T11:12:09;101736.53;;;20.46;36.16
4767;BME280;2397;53.576;9.746;2023-04-21T11:14:38;101739.38;;;20.65;35.83
4767;BME280;2397;53.576;9.746;2023-04-21T11:17:10;101735.94;;;20.92;36.63
4767;BME280;2397;53.576;9.746;2023-04-21T11:19:37;101731.56;;;21.12;36.87
4767;BME280;2397;53.576;9.746;2023-04-21T11:22:04;101723.31;;;21.14;36.20
4767;BME280;2397;53.576;9.746;2023-04-21T11:24:31;101725.25;;;20.99;36.72
4767;BME280;2397;53.576;9.746;2023-04-21T11:26:58;101724.31;;;21.40;37.87
4767;BME280;2397;53.576;9.746;2023-04-21T11:29:27;101719.03;;;21.60;37.16
4767;BME280;2397;53.576;9.746;2023-04-21T11:31:57;101722.88;;;21.78;35.93
4767;BME280;2397;53.576;9.746;2023-04-21T11:34:25;101703.91;;;21.46;35.31
4767;BME280;2397;53.576;9.746;2023-04-21T11:36:52;101698.78;;;21.57;35.72
4767;BME280;2397;53.576;9.746;2023-04-21T11:39:19;101703.44;;;21.76;35.93
4767;BME280;2397;53.576;9.746;2023-04-21T11:41:49;101708.94;;;22.09;36.60
4767;BME280;2397;53.576;9.746;2023-04-21T11:44:41;101695.66;;;21.94;34.59
4767;BME280;2397;53.576;9.746;2023-04-21T11:47:15;101691.44;;;21.72;33.69
4767;BME280;2397;53.576;9.746;2023-04-21T11:50:00;101687.66;;;22.14;35.20
4767;BME280;2397;53.576;9.746;2023-04-21T11:52:29;101678.94;;;21.99;33.34
4767;BME280;2397;53.576;9.746;2023-04-21T11:55:02;101678.19;;;22.37;34.72
4767;BME280;2397;53.576;9.746;2023-04-21T11:57:30;101657.03;;;22.08;32.90
4767;BME280;2397;53.576;9.746;2023-04-21T11:59:59;101666.78;;;22.35;33.11
4767;BME280;2397;53.576;9.746;2023-04-21T12:02:27;101659.41;;;22.50;32.34
4767;BME280;2397;53.576;9.746;2023-04-21T12:05:05;101656.50;;;22.84;34.21
4767;BME280;2397;53.576;9.746;2023-04-21T12:07:34;101638.28;;;22.60;31.49
4767;BME280;2397;53.576;9.746;2023-04-21T12:10:07;101642.78;;;22.99;33.10
4767;BME280;2397;53.576;9.746;2023-04-21T12:12:39;101643.66;;;22.60;30.55
4767;BME280;2397;53.576;9.746;2023-04-21T12:15:07;101639.09;;;22.87;32.64
4767;BME280;2397;53.576;9.746;2023-04-21T12:17:44;101643.16;;;23.22;31.84
4767;BME280;2397;53.576;9.746;2023-04-21T12:20:11;101642.69;;;23.45;31.36
4767;BME280;2397;53.576;9.746;2023-04-21T12:22:38;101638.69;;;23.60;29.98
4767;BME280;2397;53.576;9.746;2023-04-21T12:25:05;101625.97;;;23.17;28.85
4767;BME280;2397;53.576;9.746;2023-04-21T12:27:31;101630.94;;;23.13;30.27
4767;BME280;2397;53.576;9.746;2023-04-21T12:29:58;101625.34;;;23.28;29.84
4767;BME280;2397;53.576;9.746;2023-04-21T12:32:24;101634.63;;;23.45;30.69
4767;BME280;2397;53.576;9.746;2023-04-21T12:34:51;101626.94;;;23.42;29.83
4767;BME280;2397;53.576;9.746;2023-04-21T12:37:18;101621.00;;;23.27;29.85
4767;BME280;2397;53.576;9.746;2023-04-21T12:39:45;101626.00;;;23.10;28.71
4767;BME280;2397;53.576;9.746;2023-04-21T12:42:11;101622.44;;;23.29;29.38
4767;BME280;2397;53.576;9.746;2023-04-21T12:44:38;101626.16;;;23.79;28.76
4767;BME280;2397;53.576;9.746;2023-04-21T12:47:05;101616.97;;;23.49;29.34
4767;BME280;2397;53.576;9.746;2023-04-21T12:49:31;101605.94;;;22.99;28.25
4767;BME280;2397;53.576;9.746;2023-04-21T12:51:58;101608.44;;;22.81;27.79
4767;BME280;2397;53.576;9.746;2023-04-21T12:54:24;101610.03;;;23.08;28.41
4767;BME280;2397;53.576;9.746;2023-04-21T12:56:51;101618.78;;;23.61;28.21
4767;BME280;2397;53.576;9.746;2023-04-21T12:59:17;101613.69;;;23.84;26.69
4767;BME280;2397;53.576;9.746;2023-04-21T13:01:44;101604.91;;;24.02;26.12
4767;BME280;2397;53.576;9.746;2023-04-21T13:04:10;101595.38;;;24.24;26.69
4767;BME280;2397;53.576;9.746;2023-04-21T13:06:38;101600.34;;;24.27;25.91
4767;BME280;2397;53.576;9.746;2023-04-21T13:09:04;101599.34;;;24.46;27.70
4767;BME280;2397;53.576;9.746;2023-04-21T13:11:31;101583.66;;;24.12;25.55
4767;BME280;2397;53.576;9.746;2023-04-21T13:13:58;101584.44;;;23.88;24.90
4767;BME280;2397;53.576;9.746;2023-04-21T13:16:25;101583.50;;;24.56;25.36
4767;BME280;2397;53.576;9.746;2023-04-21T13:18:55;101569.56;;;24.59;23.87
4767;BME280;2397;53.576;9.746;2023-04-21T13:21:21;101568.47;;;24.42;23.97
4767;BME280;2397;53.576;9.746;2023-04-21T13:23:48;101566.00;;;24.65;25.69
4767;BME280;2397;53.576;9.746;2023-04-21T13:26:16;101570.97;;;25.22;24.82
4767;BME280;2397;53.576;9.746;2023-04-21T13:28:42;101564.38;;;25.36;24.05
4767;BME280;2397;53.576;9.746;2023-04-21T13:31:09;101562.63;;;24.87;25.46
4767;BME280;2397;53.576;9.746;2023-04-21T13:33:36;101558.06;;;24.70;25.96
4767;BME280;2397;53.576;9.746;2023-04-21T13:36:02;101547.78;;;24.36;25.00
4767;BME280;2397;53.576;9.746;2023-04-21T13:38:29;101557.53;;;24.97;26.62
4767;BME280;2397;53.576;9.746;2023-04-21T13:40:56;101556.88;;;25.20;25.23